Weather at Burgas Airport

Public forecast

Using degrees Celsius for public forecast. Weather courtesy of forecast.io.

Current aviation weather report (METAR) for Burgas Airport

2024/05/26 09:00 (retrieved 34 minutes ago)

LBBG 260900Z 08015KT 9999 FEW030 22/11 Q1018 NOSIG

Aviation forecast (TAF) for Burgas Airport

2024/05/26 06:18 (retrieved 3 hours ago)

TAF TAF LBBG 260500Z 2606/2706 03012KT CAVOK BECMG 2608/2610 09016KT SCT040 BECMG 2618/2620 03010KT BECMG 2622/2624 VRB04KT